createdAt,value
2023-03-14T00:01:38.672Z,13.00
2023-03-14T00:06:43.389Z,13.00
2023-03-14T00:11:51.394Z,13.00
2023-03-14T00:16:55.563Z,13.00
2023-03-14T00:21:59.350Z,13.00
2023-03-14T00:27:04.318Z,13.00
2023-03-14T00:32:07.734Z,13.00
2023-03-14T00:37:11.107Z,13.00
2023-03-14T00:42:16.318Z,13.00
2023-03-14T00:47:20.342Z,13.00
2023-03-14T00:52:23.785Z,13.00
2023-03-14T00:57:28.890Z,13.00
2023-03-14T01:02:32.320Z,13.00
2023-03-14T01:07:36.330Z,13.00
2023-03-14T01:12:41.511Z,12.90
2023-03-14T01:17:45.677Z,12.90
2023-03-14T01:22:49.337Z,12.90
2023-03-14T01:27:54.144Z,12.90
2023-03-14T01:32:57.701Z,13.00
2023-03-14T01:38:01.209Z,13.10
2023-03-14T01:43:16.819Z,13.10
2023-03-14T01:48:21.182Z,13.20
2023-03-14T01:53:25.064Z,13.20
2023-03-14T01:58:33.352Z,13.20
2023-03-14T02:03:41.054Z,13.20
2023-03-14T02:08:44.954Z,13.20
2023-03-14T02:13:50.625Z,13.20
2023-03-14T02:18:54.260Z,13.20
2023-03-14T02:24:08.238Z,13.20
2023-03-14T02:29:14.764Z,13.20
2023-03-14T02:34:18.445Z,13.10
2023-03-14T02:39:26.898Z,13.10
2023-03-14T02:44:31.884Z,13.00
2023-03-14T02:49:36.495Z,13.00
2023-03-14T02:54:39.881Z,13.00
2023-03-14T02:59:45.134Z,13.00
2023-03-14T03:04:48.890Z,12.90
2023-03-14T03:09:52.391Z,12.90
2023-03-14T03:14:58.067Z,12.90
2023-03-14T03:20:04.638Z,12.80
2023-03-14T03:25:09.715Z,12.80
2023-03-14T03:30:15.248Z,12.70
2023-03-14T03:35:18.900Z,12.80
2023-03-14T03:40:22.347Z,12.80
2023-03-14T03:45:27.228Z,12.80
2023-03-14T03:50:30.647Z,12.80
2023-03-14T03:55:34.039Z,12.80
2023-03-14T04:00:39.989Z,12.80
2023-03-14T04:05:43.446Z,12.90
2023-03-14T04:10:46.824Z,12.90
2023-03-14T04:15:52.300Z,12.90
2023-03-14T04:20:56.669Z,13.00
2023-03-14T04:26:02.394Z,13.00
2023-03-14T04:31:11.868Z,13.00
2023-03-14T04:36:15.813Z,13.00
2023-03-14T04:41:19.305Z,13.00
2023-03-14T04:46:24.185Z,13.00
2023-03-14T04:51:28.377Z,13.10
2023-03-14T04:56:31.828Z,13.10
2023-03-14T05:01:36.816Z,13.10
2023-03-14T05:06:40.637Z,13.20
2023-03-14T05:11:44.087Z,13.20
2023-03-14T05:16:49.089Z,13.20
2023-03-14T05:21:52.896Z,13.30
2023-03-14T05:26:56.369Z,13.30
2023-03-14T05:32:01.182Z,13.20
2023-03-14T05:37:04.685Z,13.30
2023-03-14T05:42:08.275Z,13.30
2023-03-14T05:47:13.161Z,13.30
2023-03-14T05:52:16.764Z,13.20
2023-03-14T05:57:20.228Z,13.20
2023-03-14T06:02:25.866Z,13.10
2023-03-14T06:07:29.677Z,13.10
2023-03-14T06:12:33.246Z,13.10
2023-03-14T06:17:38.184Z,13.10
2023-03-14T06:22:43.073Z,13.10
2023-03-14T06:27:46.755Z,13.00
2023-03-14T06:32:51.691Z,13.00
2023-03-14T06:37:55.439Z,13.00
2023-03-14T06:42:59.175Z,13.00
2023-03-14T06:48:03.976Z,13.10
2023-03-14T06:53:07.829Z,13.20
2023-03-14T06:58:11.831Z,13.20
2023-03-14T07:03:17.295Z,13.20
2023-03-14T07:08:20.897Z,13.30
2023-03-14T07:13:24.528Z,13.30
2023-03-14T07:18:29.787Z,13.30
2023-03-14T07:23:33.445Z,13.30
2023-03-14T07:28:36.871Z,13.40
2023-03-14T07:33:42.566Z,13.40
2023-03-14T07:38:46.813Z,13.30
2023-03-14T07:43:50.808Z,13.30
2023-03-14T07:48:55.739Z,13.30
2023-03-14T07:53:59.235Z,13.30
2023-03-14T07:59:02.982Z,13.30
2023-03-14T08:04:08.564Z,13.20
2023-03-14T08:09:12.604Z,13.20
2023-03-14T08:14:15.996Z,13.10
2023-03-14T08:19:21.878Z,13.00
2023-03-14T08:24:25.286Z,12.90
2023-03-14T08:29:28.725Z,12.90
2023-03-14T08:34:35.601Z,13.00
2023-03-14T08:39:39.393Z,13.00
2023-03-14T08:44:42.819Z,13.00
2023-03-14T08:49:48.024Z,13.10
2023-03-14T08:54:51.557Z,13.00
2023-03-14T08:59:55.103Z,13.00
2023-03-14T09:04:59.867Z,12.90
2023-03-14T09:10:03.341Z,12.80
2023-03-14T09:15:08.083Z,12.80
2023-03-14T09:20:15.428Z,12.90
2023-03-14T09:25:19.299Z,12.90
2023-03-14T09:30:23.760Z,12.90
2023-03-14T09:35:30.298Z,12.90
2023-03-14T09:40:36.724Z,12.90
2023-03-14T09:45:43.991Z,12.80
2023-03-14T09:50:53.389Z,12.80
2023-03-14T09:56:00.540Z,12.90
2023-03-14T10:01:04.724Z,12.90
2023-03-14T10:06:14.957Z,12.90
2023-03-14T10:11:20.178Z,12.90
2023-03-14T10:16:31.314Z,13.00
2023-03-14T10:21:40.763Z,13.00
2023-03-14T10:26:44.890Z,13.10
2023-03-14T10:37:10.074Z,13.10
2023-03-14T10:42:19.749Z,13.20
2023-03-14T10:47:27.391Z,13.20
2023-03-14T10:52:57.271Z,13.30
2023-03-14T10:57:57.459Z,13.30
2023-03-14T11:03:10.189Z,13.40
2023-03-14T11:08:21.085Z,13.40
2023-03-14T11:13:29.049Z,13.60
2023-03-14T11:18:50.874Z,13.70
2023-03-14T11:24:04.904Z,13.70
2023-03-14T11:29:21.823Z,13.80
2023-03-14T11:34:31.033Z,13.90
2023-03-14T11:39:40.413Z,14.00
2023-03-14T11:44:49.279Z,14.00
2023-03-14T11:50:00.196Z,14.00
2023-03-14T11:55:13.260Z,14.10
2023-03-14T12:00:18.306Z,14.20
2023-03-14T12:05:47.957Z,14.20
2023-03-14T12:10:56.186Z,14.30
2023-03-14T12:16:02.170Z,14.30
2023-03-14T12:21:08.201Z,14.20
2023-03-14T12:26:19.440Z,14.20
2023-03-14T12:31:44.569Z,14.10
2023-03-14T12:36:57.237Z,14.10
2023-03-14T12:42:06.967Z,14.10
2023-03-14T12:47:52.502Z,14.10
2023-03-14T12:53:41.112Z,14.10
2023-03-14T12:58:52.960Z,14.10
2023-03-14T13:03:58.854Z,14.00
2023-03-14T13:09:52.952Z,14.10
2023-03-14T13:15:00.817Z,14.00
2023-03-14T13:20:11.939Z,14.10
2023-03-14T13:25:15.388Z,14.10
2023-03-14T13:30:24.305Z,14.10
2023-03-14T13:35:30.318Z,14.10
2023-03-14T13:40:35.350Z,14.20
2023-03-14T13:45:54.874Z,14.20
2023-03-14T13:51:02.687Z,14.30
2023-03-14T13:56:11.446Z,14.20
2023-03-14T14:01:20.069Z,14.20
2023-03-14T14:06:30.109Z,14.10
2023-03-14T14:11:50.917Z,14.20
2023-03-14T14:17:01.443Z,14.20
2023-03-14T14:22:08.222Z,14.20
2023-03-14T14:27:16.516Z,14.20
2023-03-14T14:32:22.220Z,14.10
2023-03-14T14:37:28.181Z,14.10
2023-03-14T14:42:33.229Z,14.10
2023-03-14T14:47:38.449Z,14.20
2023-03-14T14:52:45.669Z,14.10
2023-03-14T14:57:54.127Z,14.20
2023-03-14T15:03:02.374Z,14.20
2023-03-14T15:08:11.554Z,14.30
2023-03-14T15:13:15.011Z,14.30
2023-03-14T15:18:20.989Z,14.30
2023-03-14T15:23:25.085Z,14.40
2023-03-14T15:28:30.012Z,14.40
2023-03-14T15:33:34.812Z,14.30
2023-03-14T15:38:38.576Z,14.30
2023-03-14T15:43:41.962Z,14.40
2023-03-14T15:48:47.413Z,14.50
2023-03-14T15:53:52.735Z,14.50
2023-03-14T15:58:56.885Z,14.60
2023-03-14T16:04:03.641Z,14.60
2023-03-14T16:09:07.131Z,14.70
2023-03-14T16:14:10.576Z,14.70
2023-03-14T16:19:15.494Z,14.70
2023-03-14T16:24:18.983Z,14.70
2023-03-14T16:29:23.003Z,14.60
2023-03-14T16:34:28.469Z,14.60
2023-03-14T16:39:32.424Z,14.60
2023-03-14T16:44:36.268Z,14.60
2023-03-14T16:49:41.304Z,14.60
2023-03-14T16:54:44.772Z,14.50
2023-03-14T16:59:48.373Z,14.50
2023-03-14T17:04:53.292Z,14.40
2023-03-14T17:09:56.644Z,14.40
2023-03-14T17:15:01.378Z,14.30
2023-03-14T17:20:08.967Z,14.30
2023-03-14T17:25:12.431Z,14.20
2023-03-14T17:30:16.461Z,14.10
2023-03-14T17:35:21.311Z,14.10
2023-03-14T17:40:25.150Z,14.10
2023-03-14T17:45:28.810Z,14.00
2023-03-14T17:50:33.640Z,13.90
2023-03-14T17:55:37.088Z,13.90
2023-03-14T18:00:40.766Z,13.90
2023-03-14T18:05:45.952Z,13.80
2023-03-14T18:10:54.026Z,13.80
2023-03-14T18:15:57.509Z,13.80
2023-03-14T18:21:02.304Z,13.70
2023-03-14T18:26:07.262Z,13.70
2023-03-14T18:31:12.782Z,13.70
2023-03-14T18:36:17.836Z,13.60
2023-03-14T18:41:23.214Z,13.40
2023-03-14T18:46:27.677Z,13.40
2023-03-14T18:51:33.795Z,13.40
2023-03-14T18:56:37.232Z,13.40
2023-03-14T19:01:43.292Z,13.30
2023-03-14T19:06:49.015Z,13.30
2023-03-14T19:11:52.738Z,13.30
2023-03-14T19:16:58.503Z,13.40
2023-03-14T19:22:03.397Z,13.40
2023-03-14T19:27:06.795Z,13.30
2023-03-14T19:32:11.155Z,13.20
2023-03-14T19:37:15.928Z,13.20
2023-03-14T19:42:19.651Z,13.30
2023-03-14T19:47:23.096Z,13.20
2023-03-14T19:52:27.912Z,13.30
2023-03-14T19:57:31.387Z,13.30
2023-03-14T20:02:36.990Z,13.20
2023-03-14T20:07:43.138Z,12.40
2023-03-14T20:12:47.002Z,11.70
2023-03-14T20:17:51.640Z,11.00
2023-03-14T20:22:56.491Z,10.50
2023-03-14T20:27:59.897Z,10.10
2023-03-14T20:33:04.481Z,9.70
2023-03-14T20:38:10.442Z,9.30
2023-03-14T20:43:13.881Z,8.80
2023-03-14T20:48:17.302Z,8.20
2023-03-14T20:53:22.716Z,7.70
2023-03-14T20:58:26.921Z,7.20
2023-03-14T21:08:53.119Z,6.10
2023-03-14T21:13:56.516Z,5.80
2023-03-14T21:19:01.013Z,5.60
2023-03-14T21:24:07.145Z,5.50
2023-03-14T21:29:10.576Z,5.50
2023-03-14T21:34:14.074Z,5.40
2023-03-14T21:39:19.280Z,5.30
2023-03-14T21:44:23.218Z,5.20
2023-03-14T21:49:26.711Z,5.00
2023-03-14T21:54:33.895Z,5.00
2023-03-14T21:59:38.686Z,5.00
2023-03-14T22:04:42.686Z,5.00
2023-03-14T22:09:47.804Z,5.10
2023-03-14T22:14:51.693Z,5.10
2023-03-14T22:19:55.707Z,5.10
2023-03-14T22:25:00.610Z,5.10
2023-03-14T22:30:04.767Z,5.00
2023-03-14T22:35:08.761Z,5.00
2023-03-14T22:40:14.711Z,4.90
2023-03-14T22:45:18.182Z,5.00
2023-03-14T22:50:21.924Z,5.00
2023-03-14T22:55:27.219Z,5.00
2023-03-14T23:00:31.941Z,5.00
2023-03-14T23:05:35.619Z,5.00
2023-03-14T23:10:41.677Z,4.80
2023-03-14T23:15:45.348Z,4.90
2023-03-14T23:20:49.346Z,5.00
2023-03-14T23:25:54.436Z,4.90
2023-03-14T23:30:58.573Z,5.00
2023-03-14T23:36:03.943Z,5.00
2023-03-14T23:41:08.964Z,5.00
2023-03-14T23:46:12.993Z,5.00
2023-03-14T23:51:17.180Z,5.00
2023-03-14T23:56:22.034Z,5.10
